Time;durP1;ratioP1;P1;durP2;ratioP2;P2;SDS_P1;SDS_P2;PMS_P1;PMS_P2;Temp;Humidity;BMP_temperature;BMP_pressure;BME280_temperature;BME280_humidity;BME280_pressure;Samples;Min_cycle;Max_cycle;Signal;HPM_P1;HPM_P2
2022/06/30 00:02:23;;;;;;;;;9.80;9.80;;;;;;;;4980178;28;9503;-68
2022/06/30 00:04:49;;;;;;;;;7.00;2.00;;;;;;;;4980545;28;9447;-68
2022/06/30 00:07:17;;;;;;;;;3.60;3.60;;;;;;;;4981421;28;9482;-68
2022/06/30 00:09:43;;;;;;;;;6.20;5.20;;;;;;;;4980381;28;8901;-69
2022/06/30 00:12:10;;;;;;;;;6.00;4.80;;;;;;;;4980489;28;8799;-68
2022/06/30 00:14:37;;;;;;;;;5.20;4.80;;;;;;;;4980089;28;8803;-68
2022/06/30 00:17:03;;;;;;;;;5.20;5.20;;;;;;;;4980301;28;8779;-68
2022/06/30 00:19:30;;;;;;;;;8.20;5.40;;;;;;;;4979918;28;8768;-68
2022/06/30 00:21:57;;;;;;;;;4.60;4.60;;;;;;;;4981149;28;8762;-68
2022/06/30 00:24:23;;;;;;;;;8.80;4.20;;;;;;;;4962506;28;8798;-68
2022/06/30 00:26:50;;;;;;;;;7.00;4.80;;;;;;;;4980045;28;8783;-68
2022/06/30 00:29:16;;;;;;;;;5.60;5.00;;;;;;;;4963083;28;8866;-67
2022/06/30 00:31:43;;;;;;;;;8.60;5.40;;;;;;;;4979611;28;9498;-68
2022/06/30 00:34:10;;;;;;;;;8.00;6.20;;;;;;;;4980869;28;8748;-68
2022/06/30 00:36:36;;;;;;;;;5.80;5.60;;;;;;;;4979730;28;8861;-68
2022/06/30 00:39:03;;;;;;;;;7.00;7.00;;;;;;;;4962691;28;8791;-68
2022/06/30 00:41:32;;;;;;;;;6.20;5.00;;;;;;;;4979381;28;8772;-68
2022/06/30 00:43:59;;;;;;;;;7.20;6.20;;;;;;;;4979246;28;8791;-68
2022/06/30 00:46:26;;;;;;;;;7.60;6.00;;;;;;;;4979212;28;8756;-68
2022/06/30 00:48:52;;;;;;;;;8.40;7.20;;;;;;;;4979519;28;8796;-68
2022/06/30 00:51:19;;;;;;;;;14.00;10.00;;;;;;;;4979259;28;8791;-66
2022/06/30 00:53:46;;;;;;;;;8.00;8.00;;;;;;;;4979740;28;8890;-68
2022/06/30 00:56:12;;;;;;;;;8.80;7.60;;;;;;;;4979773;28;8846;-68
2022/06/30 00:58:39;;;;;;;;;8.60;7.80;;;;;;;;4979607;28;9879;-68
2022/06/30 01:01:09;;;;;;;;;6.00;6.00;;;;;;;;4980376;28;8842;-68
2022/06/30 01:03:36;;;;;;;;;5.80;5.80;;;;;;;;4961833;28;10194;-68
2022/06/30 01:06:03;;;;;;;;;7.00;6.80;;;;;;;;4961515;28;9444;-68
2022/06/30 01:08:30;;;;;;;;;8.80;8.80;;;;;;;;4979264;28;8792;-68
2022/06/30 01:13:42;;;;;;;;;7.80;7.00;;;;;;;;4979049;28;8799;-67
2022/06/30 01:16:10;;;;;;;;;8.00;7.00;;;;;;;;4980432;28;8764;-68
2022/06/30 01:18:37;;;;;;;;;7.20;6.20;;;;;;;;4977925;28;8811;-68
2022/06/30 01:21:04;;;;;;;;;7.00;5.40;;;;;;;;4979206;28;8968;-68
2022/06/30 01:23:30;;;;;;;;;7.00;7.00;;;;;;;;4978977;28;8875;-67
2022/06/30 01:25:57;;;;;;;;;6.00;6.00;;;;;;;;4978913;28;8942;-68
2022/06/30 01:28:23;;;;;;;;;7.40;7.20;;;;;;;;4979484;28;8767;-67
2022/06/30 01:30:50;;;;;;;;;7.00;6.80;;;;;;;;4968968;28;8906;-68
2022/06/30 01:33:17;;;;;;;;;6.60;6.00;;;;;;;;4978476;28;8799;-65
2022/06/30 01:35:43;;;;;;;;;7.00;7.00;;;;;;;;4978609;28;8798;-67
2022/06/30 01:38:10;;;;;;;;;8.80;7.40;;;;;;;;4978970;28;8895;-68
2022/06/30 01:40:36;;;;;;;;;8.80;7.60;;;;;;;;4961373;28;8787;-68
2022/06/30 01:43:05;;;;;;;;;9.00;6.20;;;;;;;;4979364;28;8882;-68
2022/06/30 01:45:31;;;;;;;;;6.00;6.00;;;;;;;;4978083;28;9853;-68
2022/06/30 01:47:58;;;;;;;;;4.20;4.20;;;;;;;;4978730;28;8913;-68
2022/06/30 01:50:25;;;;;;;;;6.20;5.40;;;;;;;;4978391;28;8796;-67
2022/06/30 01:52:52;;;;;;;;;7.80;5.00;;;;;;;;4978649;28;8783;-68
2022/06/30 01:55:19;;;;;;;;;8.60;4.60;;;;;;;;4979103;28;8748;-67
2022/06/30 01:57:46;;;;;;;;;7.60;6.80;;;;;;;;4978354;28;8874;-68
2022/06/30 02:00:13;;;;;;;;;7.20;6.00;;;;;;;;4961003;28;8790;-68
2022/06/30 02:02:40;;;;;;;;;8.00;3.80;;;;;;;;4978324;28;8767;-68
2022/06/30 02:05:07;;;;;;;;;9.00;5.20;;;;;;;;4977479;28;8902;-68
2022/06/30 02:07:37;;;;;;;;;7.00;4.60;;;;;;;;4978388;28;9560;-68
2022/06/30 02:10:07;;;;;;;;;3.60;3.60;;;;;;;;4979061;28;8771;-68
2022/06/30 02:12:51;;;;;;;;;7.60;4.60;;;;;;;;4977840;28;9440;-68
2022/06/30 02:15:19;;;;;;;;;4.80;4.80;;;;;;;;4978189;28;8802;-68
2022/06/30 02:17:46;;;;;;;;;8.40;5.00;;;;;;;;4978126;28;8790;-67
2022/06/30 02:20:13;;;;;;;;;5.40;3.60;;;;;;;;4978240;28;8763;-68
2022/06/30 02:22:40;;;;;;;;;8.40;7.00;;;;;;;;4978285;28;8764;-67
2022/06/30 02:25:07;;;;;;;;;4.20;4.20;;;;;;;;4978879;28;8768;-68
2022/06/30 02:27:34;;;;;;;;;7.00;5.80;;;;;;;;4977516;28;8807;-68
2022/06/30 02:30:00;;;;;;;;;7.20;5.80;;;;;;;;4977737;28;8803;-68
2022/06/30 02:32:27;;;;;;;;;10.80;9.00;;;;;;;;4960433;28;8799;-68
2022/06/30 02:34:54;;;;;;;;;11.20;10.80;;;;;;;;4978027;28;8756;-68
2022/06/30 02:37:20;;;;;;;;;4.40;3.00;;;;;;;;4978782;28;8829;-67
2022/06/30 02:39:47;;;;;;;;;12.20;10.20;;;;;;;;4977878;28;8772;-67
2022/06/30 02:42:14;;;;;;;;;12.00;9.80;;;;;;;;4978205;28;8790;-68
2022/06/30 02:44:40;;;;;;;;;7.40;7.40;;;;;;;;4977770;28;8791;-68
2022/06/30 02:47:07;;;;;;;;;14.40;9.60;;;;;;;;4977996;28;8805;-68
2022/06/30 02:49:35;;;;;;;;;9.20;7.60;;;;;;;;4977861;28;8799;-68
2022/06/30 02:52:01;;;;;;;;;8.00;8.00;;;;;;;;4978817;28;8779;-68
2022/06/30 02:54:28;;;;;;;;;8.60;8.60;;;;;;;;4977670;28;8771;-68
2022/06/30 02:56:54;;;;;;;;;9.20;9.20;;;;;;;;4977832;28;9409;-68
2022/06/30 02:59:21;;;;;;;;;13.60;11.00;;;;;;;;4977973;28;8768;-67
2022/06/30 03:01:48;;;;;;;;;10.20;10.00;;;;;;;;4977859;28;8886;-68
2022/06/30 03:04:14;;;;;;;;;10.80;9.80;;;;;;;;4978638;28;8937;-68
2022/06/30 03:06:41;;;;;;;;;9.60;9.40;;;;;;;;4977803;28;8767;-68
2022/06/30 03:09:08;;;;;;;;;9.20;8.00;;;;;;;;4977973;28;8779;-68
2022/06/30 03:11:34;;;;;;;;;9.60;8.00;;;;;;;;4979797;28;8763;-68
2022/06/30 03:14:01;;;;;;;;;7.20;7.20;;;;;;;;4980324;28;8779;-68
2022/06/30 03:16:28;;;;;;;;;11.40;8.20;;;;;;;;4981125;28;8760;-68
2022/06/30 03:18:54;;;;;;;;;6.80;6.80;;;;;;;;4982206;28;8752;-68
2022/06/30 03:21:21;;;;;;;;;8.00;8.00;;;;;;;;4981143;28;9460;-67
2022/06/30 03:23:47;;;;;;;;;12.20;11.20;;;;;;;;4981360;28;8783;-68
2022/06/30 03:26:14;;;;;;;;;11.80;11.80;;;;;;;;4981138;28;8767;-68
2022/06/30 03:28:41;;;;;;;;;16.80;15.00;;;;;;;;4980945;28;9542;-68
2022/06/30 03:31:07;;;;;;;;;19.00;17.40;;;;;;;;4981536;28;8752;-68
2022/06/30 03:33:34;;;;;;;;;18.60;15.40;;;;;;;;4980774;28;8805;-68
2022/06/30 03:36:01;;;;;;;;;18.40;18.00;;;;;;;;4981000;28;8798;-68
2022/06/30 03:38:28;;;;;;;;;16.80;15.20;;;;;;;;4979798;28;8787;-68
2022/06/30 03:40:54;;;;;;;;;21.25;20.50;;;;;;;;4980012;28;9101;-68
2022/06/30 03:43:21;;;;;;;;;19.00;19.00;;;;;;;;4981365;28;8764;-68
2022/06/30 03:45:48;;;;;;;;;25.25;24.00;;;;;;;;4979549;28;8791;-68
2022/06/30 03:48:15;;;;;;;;;29.75;27.25;;;;;;;;4980742;28;8790;-69
2022/06/30 03:50:42;;;;;;;;;27.00;25.75;;;;;;;;4963311;28;8783;-68
2022/06/30 03:53:08;;;;;;;;;19.25;18.25;;;;;;;;4980686;28;8814;-68
2022/06/30 03:55:39;;;;;;;;;14.80;14.80;;;;;;;;4980622;28;8762;-68
2022/06/30 03:58:07;;;;;;;;;16.20;15.20;;;;;;;;4981193;28;8759;-68
2022/06/30 04:00:34;;;;;;;;;17.60;15.80;;;;;;;;4980476;28;9440;-68
2022/06/30 04:03:02;;;;;;;;;18.40;17.40;;;;;;;;4980491;28;8775;-68
2022/06/30 04:05:28;;;;;;;;;13.80;13.80;;;;;;;;4980449;28;8929;-67
2022/06/30 04:07:55;;;;;;;;;19.75;17.75;;;;;;;;4979622;28;8779;-68
2022/06/30 04:10:22;;;;;;;;;16.40;16.00;;;;;;;;4981092;28;8767;-67
2022/06/30 04:12:48;;;;;;;;;16.20;14.80;;;;;;;;4980567;28;9468;-68
2022/06/30 04:15:15;;;;;;;;;14.00;12.80;;;;;;;;4980314;28;8783;-68
2022/06/30 04:17:42;;;;;;;;;12.20;12.20;;;;;;;;4980113;28;8756;-68
2022/06/30 04:20:18;;;;;;;;;15.80;12.20;;;;;;;;4980523;28;8760;-68
2022/06/30 04:22:45;;;;;;;;;12.80;12.60;;;;;;;;4980010;28;9500;-68
2022/06/30 04:25:12;;;;;;;;;10.60;10.00;;;;;;;;4963488;28;8774;-68
2022/06/30 04:27:49;;;;;;;;;8.80;8.80;;;;;;;;4962607;28;8791;-68
2022/06/30 04:32:37;;;;;;;;;8.00;6.60;;;;;;;;4980461;28;8786;-68
2022/06/30 04:33:03;;;;;;;;;6.20;6.00;;;;;;;;4980426;28;8882;-68
2022/06/30 04:35:32;;;;;;;;;7.80;7.80;;;;;;;;4980004;28;9488;-67
2022/06/30 04:37:59;;;;;;;;;9.20;7.20;;;;;;;;4980304;28;8834;-68
2022/06/30 04:43:11;;;;;;;;;8.00;8.00;;;;;;;;4979325;28;8767;-68
2022/06/30 04:45:37;;;;;;;;;9.80;9.80;;;;;;;;4979704;28;8906;-68
2022/06/30 04:48:04;;;;;;;;;11.00;11.00;;;;;;;;4959374;28;8754;-68
2022/06/30 04:50:31;;;;;;;;;13.00;12.00;;;;;;;;4975155;28;8821;-68
2022/06/30 04:52:57;;;;;;;;;14.40;14.40;;;;;;;;4960761;28;8769;-68
2022/06/30 04:55:24;;;;;;;;;17.20;14.80;;;;;;;;4960600;28;8754;-67
2022/06/30 04:57:51;;;;;;;;;19.60;15.60;;;;;;;;4960261;28;8769;-68
2022/06/30 05:00:17;;;;;;;;;15.60;14.80;;;;;;;;4960048;28;8750;-66
2022/06/30 05:02:44;;;;;;;;;17.25;15.75;;;;;;;;4972215;28;8767;-69
2022/06/30 05:05:10;;;;;;;;;21.20;19.00;;;;;;;;4979615;28;8938;-68
2022/06/30 05:07:37;;;;;;;;;21.00;18.40;;;;;;;;4979281;28;8798;-68
2022/06/30 05:10:04;;;;;;;;;20.50;18.25;;;;;;;;4962570;28;8788;-69
2022/06/30 05:12:30;;;;;;;;;22.50;20.50;;;;;;;;4979055;28;8795;-68
2022/06/30 05:14:59;;;;;;;;;20.20;19.00;;;;;;;;4962090;28;8778;-69
2022/06/30 05:17:25;;;;;;;;;19.20;17.00;;;;;;;;4978702;28;8878;-69
2022/06/30 05:19:52;;;;;;;;;16.40;15.20;;;;;;;;4961947;28;8779;-68
2022/06/30 05:22:19;;;;;;;;;22.75;20.75;;;;;;;;4962444;28;8795;-68
2022/06/30 05:27:30;;;;;;;;;17.20;15.60;;;;;;;;4978529;28;8901;-68
2022/06/30 05:29:57;;;;;;;;;18.40;17.20;;;;;;;;4962183;28;8778;-68
2022/06/30 05:32:23;;;;;;;;;18.00;15.60;;;;;;;;4978593;28;8784;-68
2022/06/30 05:34:50;;;;;;;;;18.40;18.20;;;;;;;;4978179;28;8756;-68
2022/06/30 05:37:17;;;;;;;;;16.80;14.40;;;;;;;;4979191;28;8775;-67
2022/06/30 05:39:43;;;;;;;;;15.80;14.20;;;;;;;;4979064;28;8779;-69
2022/06/30 05:42:10;;;;;;;;;13.00;12.80;;;;;;;;4978889;28;8779;-69
2022/06/30 05:44:37;;;;;;;;;13.40;13.00;;;;;;;;4978356;28;8823;-68
2022/06/30 05:47:03;;;;;;;;;16.00;15.60;;;;;;;;4958256;28;9451;-68
2022/06/30 05:49:30;;;;;;;;;14.60;12.60;;;;;;;;4959207;28;8806;-68
2022/06/30 05:51:57;;;;;;;;;16.00;13.80;;;;;;;;4959924;28;8770;-68
2022/06/30 05:54:23;;;;;;;;;14.40;11.20;;;;;;;;4959149;28;8789;-68
2022/06/30 05:56:50;;;;;;;;;13.20;12.60;;;;;;;;4974031;28;8797;-68
2022/06/30 05:59:17;;;;;;;;;10.20;9.00;;;;;;;;4957958;28;8852;-67
2022/06/30 06:01:43;;;;;;;;;7.40;7.40;;;;;;;;4962908;28;8857;-68
2022/06/30 06:04:10;;;;;;;;;8.00;7.20;;;;;;;;4979366;28;8802;-68
2022/06/30 06:06:36;;;;;;;;;7.60;7.20;;;;;;;;4978389;28;8907;-69
2022/06/30 06:09:03;;;;;;;;;7.80;7.20;;;;;;;;4978618;28;8792;-69
2022/06/30 06:11:32;;;;;;;;;9.80;9.80;;;;;;;;4978117;28;8783;-69
2022/06/30 06:13:59;;;;;;;;;10.60;8.20;;;;;;;;4978300;28;8803;-69
2022/06/30 06:16:25;;;;;;;;;8.40;7.20;;;;;;;;4977697;28;8752;-67
2022/06/30 06:18:52;;;;;;;;;9.40;9.40;;;;;;;;4979237;28;8776;-68
2022/06/30 06:21:19;;;;;;;;;10.60;9.60;;;;;;;;4961038;28;8815;-68
2022/06/30 06:23:45;;;;;;;;;13.00;10.20;;;;;;;;4978211;28;8791;-69
2022/06/30 06:26:12;;;;;;;;;11.20;10.80;;;;;;;;4978155;28;8778;-69
2022/06/30 06:31:24;;;;;;;;;11.80;8.80;;;;;;;;4963748;28;9389;-70
2022/06/30 06:33:50;;;;;;;;;11.00;9.20;;;;;;;;4978645;28;8815;-69
2022/06/30 06:36:17;;;;;;;;;8.80;7.00;;;;;;;;4978225;28;8779;-68
2022/06/30 06:38:43;;;;;;;;;7.80;7.00;;;;;;;;4978209;28;8785;-69
2022/06/30 06:41:10;;;;;;;;;5.00;5.00;;;;;;;;4978560;28;8790;-69
2022/06/30 06:43:37;;;;;;;;;6.80;6.80;;;;;;;;4960232;28;8809;-68
2022/06/30 06:46:04;;;;;;;;;7.40;7.00;;;;;;;;4982015;28;8740;-69
2022/06/30 06:48:30;;;;;;;;;5.80;5.00;;;;;;;;4981562;28;8775;-69
2022/06/30 06:50:57;;;;;;;;;7.20;6.00;;;;;;;;4982054;28;8786;-69
2022/06/30 06:53:24;;;;;;;;;8.00;6.80;;;;;;;;4981617;28;8771;-68
2022/06/30 06:55:50;;;;;;;;;6.80;6.80;;;;;;;;4982135;28;8779;-69
2022/06/30 06:58:17;;;;;;;;;6.20;5.80;;;;;;;;4982585;28;8736;-67
2022/06/30 07:00:43;;;;;;;;;7.00;6.00;;;;;;;;4964523;28;8775;-69
2022/06/30 07:03:10;;;;;;;;;5.80;5.00;;;;;;;;4981779;28;8794;-68
2022/06/30 07:05:37;;;;;;;;;4.40;4.40;;;;;;;;4981274;28;8790;-69
2022/06/30 07:08:03;;;;;;;;;6.40;5.80;;;;;;;;4964843;28;8777;-68
2022/06/30 07:10:30;;;;;;;;;5.20;5.20;;;;;;;;4964293;28;8762;-68
2022/06/30 07:12:57;;;;;;;;;3.00;2.80;;;;;;;;4982327;28;8775;-68
2022/06/30 07:15:23;;;;;;;;;6.80;6.20;;;;;;;;4981304;28;9452;-68
2022/06/30 07:17:50;;;;;;;;;9.00;6.00;;;;;;;;4981388;28;8882;-68
2022/06/30 07:20:17;;;;;;;;;14.40;9.60;;;;;;;;4981649;28;8806;-69
2022/06/30 07:22:43;;;;;;;;;10.80;9.00;;;;;;;;4981327;28;8859;-68
2022/06/30 07:25:10;;;;;;;;;15.20;13.40;;;;;;;;4982197;28;8759;-68
2022/06/30 07:27:37;;;;;;;;;12.80;10.80;;;;;;;;4981200;28;8895;-69
2022/06/30 07:30:04;;;;;;;;;11.00;9.40;;;;;;;;4981349;28;8910;-71
2022/06/30 07:32:30;;;;;;;;;10.60;9.20;;;;;;;;4980854;28;8799;-73
2022/06/30 07:34:57;;;;;;;;;10.60;9.80;;;;;;;;4981257;28;8786;-73
2022/06/30 07:37:24;;;;;;;;;11.00;9.20;;;;;;;;4981511;28;8798;-71
2022/06/30 07:39:50;;;;;;;;;10.20;8.60;;;;;;;;4981403;28;8760;-72
2022/06/30 07:42:17;;;;;;;;;12.80;11.20;;;;;;;;4981039;28;8870;-64
2022/06/30 07:44:44;;;;;;;;;7.00;6.80;;;;;;;;4980440;28;8803;-75
2022/06/30 07:47:10;;;;;;;;;12.20;9.40;;;;;;;;4981087;28;8764;-61
2022/06/30 07:49:38;;;;;;;;;11.00;11.00;;;;;;;;4980827;28;8926;-75
2022/06/30 07:52:05;;;;;;;;;11.20;9.20;;;;;;;;4981185;28;8776;-75
2022/06/30 07:54:32;;;;;;;;;10.20;9.00;;;;;;;;4963455;28;8806;-73
2022/06/30 07:56:59;;;;;;;;;13.60;12.80;;;;;;;;4963397;28;9487;-70
2022/06/30 07:59:26;;;;;;;;;12.20;10.40;;;;;;;;4980254;28;9460;-71
2022/06/30 08:01:52;;;;;;;;;11.20;10.20;;;;;;;;4980743;28;8771;-73
2022/06/30 08:04:19;;;;;;;;;13.00;10.20;;;;;;;;4981018;28;8790;-71
2022/06/30 08:06:46;;;;;;;;;11.40;10.80;;;;;;;;4980477;28;8813;-72
2022/06/30 08:09:12;;;;;;;;;9.40;7.40;;;;;;;;4980395;28;8863;-72
2022/06/30 08:11:39;;;;;;;;;10.00;10.00;;;;;;;;4980273;28;9004;-73
2022/06/30 08:14:05;;;;;;;;;11.20;11.20;;;;;;;;4980453;28;8893;-72
2022/06/30 08:16:32;;;;;;;;;10.00;10.00;;;;;;;;4980171;28;8891;-72
2022/06/30 08:18:59;;;;;;;;;12.20;11.20;;;;;;;;4980992;28;8803;-75
2022/06/30 08:21:26;;;;;;;;;15.40;12.60;;;;;;;;4962305;28;8866;-69
2022/06/30 08:23:52;;;;;;;;;13.60;11.40;;;;;;;;4962772;28;8779;-71
2022/06/30 08:26:19;;;;;;;;;13.60;12.60;;;;;;;;4962962;28;8803;-71
2022/06/30 08:28:45;;;;;;;;;13.40;12.20;;;;;;;;4980372;28;8763;-69
2022/06/30 08:31:12;;;;;;;;;10.80;9.00;;;;;;;;4980768;28;8748;-75
2022/06/30 08:33:39;;;;;;;;;12.20;10.80;;;;;;;;4979746;28;8861;-75
2022/06/30 08:36:06;;;;;;;;;14.40;12.40;;;;;;;;4962554;28;8763;-69
2022/06/30 08:38:32;;;;;;;;;15.00;11.00;;;;;;;;4962185;28;8833;-75
2022/06/30 08:43:44;;;;;;;;;13.60;12.20;;;;;;;;4979016;28;8760;-68
2022/06/30 08:46:11;;;;;;;;;14.20;12.80;;;;;;;;4979061;28;8772;-73
2022/06/30 08:48:38;;;;;;;;;12.60;11.60;;;;;;;;4979244;28;8945;-76
2022/06/30 08:51:05;;;;;;;;;11.00;9.60;;;;;;;;4979642;28;8783;-75
2022/06/30 08:53:40;;;;;;;;;15.00;11.40;;;;;;;;4979265;28;8874;-68
2022/06/30 08:56:06;;;;;;;;;10.60;10.60;;;;;;;;4979635;28;8795;-72
2022/06/30 08:58:33;;;;;;;;;10.40;10.20;;;;;;;;4979240;28;8803;-69
2022/06/30 09:00:59;;;;;;;;;8.00;8.00;;;;;;;;4963135;28;8787;-69
2022/06/30 09:03:26;;;;;;;;;10.00;10.00;;;;;;;;4962222;28;8783;-75
2022/06/30 09:05:53;;;;;;;;;13.20;11.00;;;;;;;;4978485;28;8776;-72
2022/06/30 09:08:20;;;;;;;;;11.60;10.80;;;;;;;;4978289;28;8807;-70
2022/06/30 09:10:50;;;;;;;;;12.20;10.40;;;;;;;;4979309;28;8804;-75
2022/06/30 09:13:17;;;;;;;;;9.40;8.40;;;;;;;;4979878;28;8783;-72
2022/06/30 09:15:43;;;;;;;;;13.00;9.20;;;;;;;;4979236;28;8775;-68
2022/06/30 09:18:21;;;;;;;;;12.40;10.80;;;;;;;;4979065;28;8787;-75
2022/06/30 09:20:51;;;;;;;;;10.80;10.80;;;;;;;;4979043;28;8794;-75
2022/06/30 09:23:25;;;;;;;;;12.20;12.20;;;;;;;;4979039;28;10735;-73
2022/06/30 09:25:52;;;;;;;;;12.40;10.20;;;;;;;;4978989;28;8810;-59
2022/06/30 09:28:37;;;;;;;;;11.00;9.20;;;;;;;;4962174;28;8764;-74
2022/06/30 09:31:07;;;;;;;;;10.75;10.75;;;;;;;;5036955;27;2053440;-74
2022/06/30 09:33:35;;;;;;;;;10.00;10.00;;;;;;;;5038022;28;8820;-75
2022/06/30 09:36:20;;;;;;;;;11.80;11.00;;;;;;;;5033976;28;8851;-74
2022/06/30 09:39:03;;;;;;;;;9.40;8.80;;;;;;;;5051521;28;9514;-75
2022/06/30 09:41:30;;;;;;;;;12.60;11.20;;;;;;;;5033725;28;8789;-75
2022/06/30 09:43:57;;;;;;;;;11.20;10.40;;;;;;;;5034099;28;8766;-74
2022/06/30 09:46:24;;;;;;;;;12.00;10.80;;;;;;;;5034396;28;8765;-79
2022/06/30 09:48:50;;;;;;;;;11.40;9.40;;;;;;;;5053771;28;9635;-75
2022/06/30 09:51:17;;;;;;;;;13.60;10.00;;;;;;;;5071387;28;8860;-75
2022/06/30 09:53:44;;;;;;;;;10.00;8.80;;;;;;;;5037101;28;8767;-75
2022/06/30 09:56:15;;;;;;;;;12.60;10.80;;;;;;;;5053470;28;8782;-75
2022/06/30 09:58:42;;;;;;;;;14.80;14.00;;;;;;;;5053719;28;8747;-75
2022/06/30 10:01:09;;;;;;;;;14.40;13.80;;;;;;;;5054268;28;8743;-74
2022/06/30 10:03:59;;;;;;;;;11.40;11.40;;;;;;;;5052829;28;9438;-74
2022/06/30 10:06:26;;;;;;;;;14.40;12.80;;;;;;;;5042921;28;8781;-74
2022/06/30 10:08:53;;;;;;;;;14.40;14.40;;;;;;;;5036677;28;8802;-75
2022/06/30 10:11:20;;;;;;;;;14.80;12.80;;;;;;;;5053252;28;8755;-75
2022/06/30 10:13:47;;;;;;;;;15.20;12.60;;;;;;;;5053568;28;8794;-75
2022/06/30 10:16:14;;;;;;;;;14.20;13.40;;;;;;;;5053532;28;8743;-79
2022/06/30 10:18:40;;;;;;;;;16.80;15.00;;;;;;;;5032702;28;8768;-74
2022/06/30 10:21:08;;;;;;;;;16.00;15.00;;;;;;;;5033340;28;8807;-75
2022/06/30 10:23:35;;;;;;;;;18.60;14.80;;;;;;;;5033249;28;8761;-75
2022/06/30 10:26:02;;;;;;;;;17.20;15.20;;;;;;;;5033046;28;9447;-75
2022/06/30 10:28:29;;;;;;;;;16.20;14.00;;;;;;;;5033031;28;8776;-75
2022/06/30 10:31:07;;;;;;;;;13.60;13.60;;;;;;;;5030048;28;8827;-75
2022/06/30 10:33:44;;;;;;;;;11.00;8.40;;;;;;;;5048030;28;8767;-74
2022/06/30 10:36:15;;;;;;;;;18.60;15.40;;;;;;;;5049529;28;8768;-75
2022/06/30 10:38:51;;;;;;;;;16.40;14.00;;;;;;;;5049343;28;9451;-75
2022/06/30 10:41:18;;;;;;;;;14.00;14.00;;;;;;;;5026570;28;8768;-75
2022/06/30 10:44:02;;;;;;;;;15.00;13.40;;;;;;;;5019803;28;8768;-75
2022/06/30 10:46:29;;;;;;;;;16.00;14.20;;;;;;;;5035743;28;8783;-75
2022/06/30 10:48:56;;;;;;;;;16.40;14.20;;;;;;;;5036597;28;8776;-74
2022/06/30 10:51:23;;;;;;;;;14.20;13.20;;;;;;;;5035718;28;8884;-75
2022/06/30 10:53:55;;;;;;;;;14.00;12.60;;;;;;;;5035683;28;8806;-75
2022/06/30 10:56:23;;;;;;;;;11.40;11.20;;;;;;;;5019220;28;8757;-75
2022/06/30 10:59:05;;;;;;;;;16.80;13.40;;;;;;;;5019504;28;9454;-75
2022/06/30 11:01:32;;;;;;;;;13.20;13.20;;;;;;;;5035482;28;8788;-77
2022/06/30 11:03:59;;;;;;;;;12.80;10.60;;;;;;;;5037593;28;8741;-76
2022/06/30 11:06:45;;;;;;;;;14.00;13.60;;;;;;;;5035379;28;9459;-77
2022/06/30 11:09:12;;;;;;;;;16.20;12.80;;;;;;;;5035356;28;8785;-75
2022/06/30 11:11:39;;;;;;;;;20.00;14.20;;;;;;;;5035279;28;8792;-76
2022/06/30 11:14:07;;;;;;;;;11.80;11.20;;;;;;;;5037024;28;8752;-74
2022/06/30 11:16:35;;;;;;;;;14.60;13.00;;;;;;;;5035220;28;8757;-75
2022/06/30 11:19:02;;;;;;;;;13.40;12.40;;;;;;;;5035643;28;8748;-79
2022/06/30 11:21:29;;;;;;;;;18.00;15.40;;;;;;;;5034995;28;8772;-75
2022/06/30 11:23:56;;;;;;;;;12.20;12.20;;;;;;;;5035226;28;8842;-75
2022/06/30 11:29:12;;;;;;;;;15.20;14.20;;;;;;;;5038069;28;8842;-75
2022/06/30 11:31:40;;;;;;;;;14.00;13.40;;;;;;;;5038498;28;8763;-74
2022/06/30 11:34:06;;;;;;;;;12.00;10.00;;;;;;;;5022771;28;8786;-80
2022/06/30 11:36:36;;;;;;;;;12.80;10.80;;;;;;;;5037920;28;8791;-75
2022/06/30 11:39:05;;;;;;;;;13.40;11.40;;;;;;;;5038555;28;9395;-75
2022/06/30 11:44:17;;;;;;;;;14.00;13.80;;;;;;;;5040676;28;8775;-75
2022/06/30 11:46:50;;;;;;;;;10.40;10.40;;;;;;;;5018469;28;8856;-75
2022/06/30 11:49:17;;;;;;;;;17.80;14.00;;;;;;;;5019096;28;8851;-75
2022/06/30 11:51:44;;;;;;;;;15.20;13.80;;;;;;;;5018089;28;8768;-75
2022/06/30 11:54:11;;;;;;;;;14.80;11.80;;;;;;;;5017417;28;8764;-75
2022/06/30 11:56:47;;;;;;;;;13.40;13.40;;;;;;;;5018190;28;8920;-75
2022/06/30 11:59:14;;;;;;;;;20.00;14.80;;;;;;;;5018301;28;8792;-75
2022/06/30 12:01:41;;;;;;;;;15.20;13.60;;;;;;;;5021459;28;8751;-75
2022/06/30 12:04:17;;;;;;;;;15.80;12.80;;;;;;;;5038554;28;8805;-75
2022/06/30 12:06:44;;;;;;;;;6.20;4.80;;;;;;;;5055760;28;8832;-75
2022/06/30 12:09:11;;;;;;;;;14.20;12.20;;;;;;;;5055110;28;8917;-75
2022/06/30 12:11:41;;;;;;;;;15.20;12.60;;;;;;;;5021071;28;8818;-75
2022/06/30 12:14:07;;;;;;;;;16.00;15.40;;;;;;;;5021349;28;8809;-75
2022/06/30 12:16:34;;;;;;;;;12.00;11.80;;;;;;;;5021093;28;8802;-75
2022/06/30 12:19:00;;;;;;;;;13.20;11.40;;;;;;;;5021824;28;8790;-75
2022/06/30 12:21:27;;;;;;;;;13.00;13.00;;;;;;;;5037141;28;8832;-75
2022/06/30 12:23:54;;;;;;;;;12.60;12.60;;;;;;;;5021211;28;8759;-75
2022/06/30 12:26:22;;;;;;;;;19.00;14.40;;;;;;;;5037414;28;8774;-75
2022/06/30 12:28:52;;;;;;;;;17.00;13.80;;;;;;;;5037119;28;8980;-75
2022/06/30 12:31:25;;;;;;;;;10.40;9.80;;;;;;;;5055660;28;8755;-75
2022/06/30 12:33:54;;;;;;;;;14.40;12.80;;;;;;;;5055571;28;8777;-79
2022/06/30 12:36:21;;;;;;;;;17.80;16.00;;;;;;;;5037234;28;8759;-75
2022/06/30 12:38:48;;;;;;;;;12.00;12.00;;;;;;;;5037369;28;8783;-75
2022/06/30 12:41:15;;;;;;;;;16.20;14.20;;;;;;;;5037419;28;8763;-75
2022/06/30 12:43:44;;;;;;;;;11.80;10.00;;;;;;;;5037261;28;8755;-75
2022/06/30 12:46:11;;;;;;;;;12.60;11.00;;;;;;;;5055682;28;8757;-75
2022/06/30 12:48:51;;;;;;;;;11.20;10.60;;;;;;;;5054498;28;8826;-75
2022/06/30 12:51:30;;;;;;;;;10.00;10.00;;;;;;;;5037138;28;8767;-75
2022/06/30 12:53:59;;;;;;;;;13.00;11.80;;;;;;;;5054658;28;8789;-75
2022/06/30 12:56:27;;;;;;;;;11.40;9.20;;;;;;;;5036913;28;8771;-74
2022/06/30 12:58:55;;;;;;;;;11.00;7.60;;;;;;;;5020659;28;8793;-75
2022/06/30 13:01:23;;;;;;;;;13.80;9.80;;;;;;;;5037498;28;8834;-74
2022/06/30 13:03:52;;;;;;;;;14.40;10.40;;;;;;;;5054283;28;8889;-80
2022/06/30 13:06:19;;;;;;;;;13.60;8.00;;;;;;;;5036578;28;8774;-75
2022/06/30 13:08:48;;;;;;;;;10.60;9.60;;;;;;;;5037008;28;8844;-75
2022/06/30 13:11:17;;;;;;;;;12.80;12.80;;;;;;;;5020643;28;8755;-74
2022/06/30 13:13:44;;;;;;;;;11.00;9.80;;;;;;;;5036337;28;8732;-75
2022/06/30 13:16:11;;;;;;;;;14.00;11.80;;;;;;;;5037591;28;8789;-75
2022/06/30 13:18:38;;;;;;;;;12.20;12.20;;;;;;;;5036094;28;8823;-79
2022/06/30 13:21:04;;;;;;;;;12.00;9.00;;;;;;;;5036846;28;8798;-75
2022/06/30 13:23:31;;;;;;;;;16.40;11.20;;;;;;;;5036582;28;8771;-75
2022/06/30 13:25:57;;;;;;;;;14.80;11.60;;;;;;;;5036634;28;8782;-75
2022/06/30 13:28:24;;;;;;;;;15.20;12.00;;;;;;;;5037244;28;8771;-75
2022/06/30 13:30:51;;;;;;;;;15.00;11.80;;;;;;;;5033082;28;9602;-75
2022/06/30 13:33:18;;;;;;;;;18.40;12.20;;;;;;;;5032627;28;8787;-75
2022/06/30 13:35:44;;;;;;;;;10.60;10.60;;;;;;;;5033251;28;8764;-75
2022/06/30 13:38:11;;;;;;;;;11.40;10.80;;;;;;;;5034069;28;8818;-75
2022/06/30 13:40:38;;;;;;;;;13.20;13.20;;;;;;;;5034187;28;9498;-75
2022/06/30 13:43:05;;;;;;;;;12.00;11.60;;;;;;;;5035110;28;8776;-75
2022/06/30 13:45:31;;;;;;;;;11.20;10.20;;;;;;;;5032558;28;8869;-80
2022/06/30 13:47:58;;;;;;;;;11.40;11.00;;;;;;;;5032923;28;8772;-75
2022/06/30 13:50:24;;;;;;;;;13.60;10.80;;;;;;;;5032717;28;8870;-75
2022/06/30 13:52:51;;;;;;;;;16.40;12.00;;;;;;;;5033174;28;8834;-75
2022/06/30 13:55:18;;;;;;;;;12.40;10.60;;;;;;;;5033735;28;8898;-75
2022/06/30 13:57:44;;;;;;;;;14.20;13.20;;;;;;;;5034251;28;8782;-75
2022/06/30 14:00:11;;;;;;;;;14.60;12.80;;;;;;;;5032893;28;8780;-75
2022/06/30 14:02:38;;;;;;;;;13.40;13.40;;;;;;;;5032589;28;8788;-76
2022/06/30 14:05:05;;;;;;;;;15.60;13.40;;;;;;;;5033013;28;8772;-75
2022/06/30 14:07:31;;;;;;;;;8.60;7.20;;;;;;;;5016312;28;8994;-75
2022/06/30 14:09:59;;;;;;;;;17.80;10.40;;;;;;;;5034663;28;8792;-75
2022/06/30 14:12:25;;;;;;;;;15.60;14.80;;;;;;;;5032508;28;8808;-75
2022/06/30 14:14:52;;;;;;;;;15.20;14.20;;;;;;;;5032846;28;8774;-75
2022/06/30 14:17:19;;;;;;;;;17.20;12.40;;;;;;;;5036393;28;8772;-75
2022/06/30 14:19:47;;;;;;;;;16.00;13.20;;;;;;;;5036730;28;8768;-75
2022/06/30 14:22:13;;;;;;;;;13.60;12.60;;;;;;;;5037223;28;8769;-75
2022/06/30 14:24:40;;;;;;;;;11.20;10.40;;;;;;;;5019515;28;8795;-75
2022/06/30 14:27:07;;;;;;;;;16.20;12.60;;;;;;;;5036396;28;9456;-77
2022/06/30 14:29:33;;;;;;;;;11.40;11.40;;;;;;;;5035418;28;8854;-74
2022/06/30 14:32:00;;;;;;;;;14.60;12.20;;;;;;;;5036432;28;8775;-75
2022/06/30 14:34:27;;;;;;;;;16.20;13.00;;;;;;;;5036211;28;8756;-77
2022/06/30 14:36:53;;;;;;;;;19.00;14.40;;;;;;;;5036990;28;8799;-75
2022/06/30 14:39:20;;;;;;;;;14.60;13.40;;;;;;;;5037084;28;8925;-79
2022/06/30 14:44:34;;;;;;;;;20.00;14.20;;;;;;;;5035967;28;8788;-77
2022/06/30 14:47:01;;;;;;;;;17.00;13.60;;;;;;;;5035745;28;9053;-75
2022/06/30 14:49:27;;;;;;;;;16.80;13.80;;;;;;;;5035945;28;9455;-75
2022/06/30 14:51:54;;;;;;;;;15.80;12.20;;;;;;;;5036726;28;8877;-75
2022/06/30 14:54:21;;;;;;;;;17.20;13.40;;;;;;;;5035567;28;8760;-79
2022/06/30 14:56:47;;;;;;;;;15.40;12.00;;;;;;;;5019418;28;8760;-75
2022/06/30 14:59:17;;;;;;;;;13.40;7.60;;;;;;;;5035907;28;8768;-75
2022/06/30 15:01:44;;;;;;;;;13.00;11.20;;;;;;;;5035614;28;8761;-75
2022/06/30 15:04:10;;;;;;;;;11.80;11.20;;;;;;;;5036374;28;8764;-75